Time,TemperatureF,DewpointF,PressureIn,WindDirection,WindDirectionDegrees,WindSpeedMPH,WindSpeedGustMPH,Humidity,HourlyPrecipIn,Conditions,Clouds,dailyrainin,SolarRadiationWatts/m^2,SoftwareType,DateUTC
2013-04-30 00:01:00,56.0,41.0,-100.00,NW,309,23.0,32.0,58,-99.99,,,0.00,0.000000,,2013-04-30 07:01:00,
2013-04-30 00:11:00,56.0,41.0,-100.00,NW,309,23.0,32.0,58,-99.99,,,0.00,0.000000,,2013-04-30 07:11:00,
2013-04-30 00:21:00,56.0,41.0,-100.00,NW,309,23.0,32.0,58,-99.99,,,0.00,0.000000,,2013-04-30 07:21:00,
2013-04-30 00:52:00,55.0,41.0,-100.00,WNW,292,20.0,35.0,59,0.00,,,0.00,0.000000,,2013-04-30 07:52:00,
2013-04-30 01:02:00,55.0,41.0,-100.00,WNW,292,20.0,35.0,59,0.00,,,0.00,0.000000,,2013-04-30 08:02:00,
2013-04-30 01:11:00,55.0,41.0,-100.00,WNW,292,20.0,35.0,59,0.00,,,0.00,0.000000,,2013-04-30 08:11:00,
2013-04-30 01:21:00,55.0,41.0,-100.00,WNW,292,20.0,35.0,59,0.00,,,0.00,0.000000,,2013-04-30 08:21:00,
2013-04-30 01:52:00,55.0,41.0,-100.00,NW,307,22.0,44.0,59,0.00,,,0.00,0.000000,,2013-04-30 08:52:00,
2013-04-30 02:01:00,55.0,41.0,-100.00,NW,307,22.0,44.0,59,0.00,,,0.00,0.000000,,2013-04-30 09:01:00,
2013-04-30 02:11:00,55.0,41.0,-100.00,NW,307,22.0,44.0,59,0.00,,,0.00,0.000000,,2013-04-30 09:11:00,
2013-04-30 02:21:00,55.0,41.0,-100.00,NW,307,22.0,44.0,59,0.00,,,0.00,0.000000,,2013-04-30 09:21:00,
2013-04-30 07:52:00,54.0,24.0,-100.00,West,278,20.0,33.0,31,-99.99,,,0.00,9.000000,,2013-04-30 14:52:00,
2013-04-30 08:01:00,54.0,24.0,-100.00,West,278,20.0,33.0,31,-99.99,,,0.00,9.000000,,2013-04-30 15:01:00,
2013-04-30 08:11:00,54.0,24.0,-100.00,West,278,20.0,33.0,31,-99.99,,,0.00,9.000000,,2013-04-30 15:11:00,
2013-04-30 08:21:00,54.0,24.0,-100.00,West,278,20.0,33.0,31,-99.99,,,0.00,9.000000,,2013-04-30 15:21:00,
2013-04-30 08:52:00,55.0,27.0,-100.00,West,275,24.0,38.0,34,0.00,,,0.00,200.000000,,2013-04-30 15:52:00,
2013-04-30 09:02:00,55.0,27.0,-100.00,West,275,24.0,38.0,34,0.00,,,0.00,200.000000,,2013-04-30 16:02:00,
2013-04-30 09:12:00,55.0,27.0,-100.00,West,275,24.0,38.0,34,0.00,,,0.00,200.000000,,2013-04-30 16:12:00,
2013-04-30 09:22:00,55.0,27.0,-100.00,West,275,24.0,38.0,34,0.00,,,0.00,200.000000,,2013-04-30 16:22:00,
2013-04-30 09:52:00,58.0,28.0,-100.00,WNW,299,26.0,48.0,31,0.00,,,0.00,474.000000,,2013-04-30 16:52:00,
2013-04-30 10:02:00,58.0,28.0,-100.00,WNW,299,26.0,48.0,31,0.00,,,0.00,474.000000,,2013-04-30 17:02:00,
2013-04-30 10:12:00,58.0,28.0,-100.00,WNW,299,26.0,48.0,31,0.00,,,0.00,474.000000,,2013-04-30 17:12:00,
2013-04-30 10:22:00,58.0,28.0,-100.00,WNW,299,26.0,48.0,31,0.00,,,0.00,474.000000,,2013-04-30 17:22:00,
2013-04-30 10:52:00,60.0,28.0,-100.00,WNW,293,31.0,43.0,30,0.00,,,0.00,744.000000,,2013-04-30 17:52:00,
2013-04-30 11:01:00,60.0,28.0,-100.00,WNW,293,31.0,43.0,30,0.00,,,0.00,744.000000,,2013-04-30 18:01:00,
2013-04-30 11:11:00,60.0,28.0,-100.00,WNW,293,31.0,43.0,30,0.00,,,0.00,744.000000,,2013-04-30 18:11:00,
2013-04-30 11:22:00,60.0,28.0,-100.00,WNW,293,31.0,43.0,30,0.00,,,0.00,744.000000,,2013-04-30 18:22:00,
2013-04-30 11:52:00,60.0,28.0,-100.00,West,270,22.0,57.0,29,0.00,,,0.00,970.000000,,2013-04-30 18:52:00,
2013-04-30 12:01:00,60.0,28.0,-100.00,West,270,22.0,57.0,29,0.00,,,0.00,970.000000,,2013-04-30 19:01:00,
2013-04-30 12:11:00,60.0,28.0,-100.00,West,270,22.0,57.0,29,0.00,,,0.00,970.000000,,2013-04-30 19:11:00,
2013-04-30 12:21:00,60.0,28.0,-100.00,West,270,22.0,57.0,29,0.00,,,0.00,970.000000,,2013-04-30 19:21:00,
2013-04-30 12:52:00,62.0,28.0,-100.00,WNW,282,26.0,51.0,27,0.00,,,0.00,1141.000000,,2013-04-30 19:52:00,
2013-04-30 13:02:00,62.0,28.0,-100.00,WNW,282,26.0,51.0,27,0.00,,,0.00,1141.000000,,2013-04-30 20:02:00,
2013-04-30 13:11:00,62.0,28.0,-100.00,WNW,282,26.0,51.0,27,0.00,,,0.00,1141.000000,,2013-04-30 20:11:00,
2013-04-30 13:21:00,62.0,28.0,-100.00,WNW,282,26.0,51.0,27,0.00,,,0.00,1141.000000,,2013-04-30 20:21:00,
2013-04-30 13:52:00,66.0,29.0,-100.00,West,281,24.0,44.0,25,0.00,,,0.00,1292.000000,,2013-04-30 20:52:00,
2013-04-30 14:01:00,66.0,29.0,-100.00,West,281,24.0,44.0,25,0.00,,,0.00,1292.000000,,2013-04-30 21:01:00,
2013-04-30 14:11:00,66.0,29.0,-100.00,West,281,24.0,44.0,25,0.00,,,0.00,1292.000000,,2013-04-30 21:11:00,
2013-04-30 14:22:00,66.0,29.0,-100.00,West,281,24.0,44.0,25,0.00,,,0.00,1292.000000,,2013-04-30 21:22:00,
2013-04-30 14:53:00,67.0,26.0,-100.00,West,280,24.0,42.0,21,0.00,,,0.00,1318.000000,,2013-04-30 21:53:00,
2013-04-30 15:02:00,67.0,26.0,-100.00,West,280,24.0,42.0,21,0.00,,,0.00,1318.000000,,2013-04-30 22:02:00,
2013-04-30 15:12:00,67.0,26.0,-100.00,West,280,24.0,42.0,21,0.00,,,0.00,1318.000000,,2013-04-30 22:12:00,
2013-04-30 15:22:00,67.0,26.0,-100.00,West,280,24.0,42.0,21,0.00,,,0.00,1318.000000,,2013-04-30 22:22:00,
2013-04-30 15:53:00,68.0,32.0,-100.00,WNW,282,34.0,37.0,26,0.00,,,0.00,1257.000000,,2013-04-30 22:53:00,
2013-04-30 16:02:00,68.0,32.0,-100.00,WNW,282,34.0,37.0,26,0.00,,,0.00,1257.000000,,2013-04-30 23:02:00,
2013-04-30 16:11:00,68.0,32.0,-100.00,WNW,282,34.0,37.0,26,0.00,,,0.00,1257.000000,,2013-04-30 23:11:00,
2013-04-30 16:21:00,68.0,32.0,-100.00,WNW,282,34.0,37.0,26,0.00,,,0.00,1257.000000,,2013-04-30 23:21:00,
2013-04-30 16:52:00,67.0,35.0,-100.00,West,280,32.0,49.0,31,0.00,,,0.00,1151.000000,,2013-04-30 23:52:00,
2013-04-30 17:01:00,67.0,35.0,-100.00,West,280,32.0,49.0,31,0.00,,,0.00,1151.000000,,2013-05-01 00:01:00,
2013-04-30 17:11:00,67.0,35.0,-100.00,West,280,32.0,49.0,31,0.00,,,0.00,1151.000000,,2013-05-01 00:11:00,
2013-04-30 17:21:00,67.0,35.0,-100.00,West,280,32.0,49.0,31,0.00,,,0.00,1151.000000,,2013-05-01 00:21:00,
2013-04-30 17:52:00,62.0,31.0,-100.00,WNW,283,28.0,47.0,31,0.00,,,-99.99,778.000000,,2013-05-01 00:52:00,
2013-04-30 18:01:00,62.0,31.0,-100.00,WNW,283,28.0,47.0,31,0.00,,,-99.99,778.000000,,2013-05-01 01:01:00,
2013-04-30 18:11:00,62.0,31.0,-100.00,WNW,283,28.0,47.0,31,0.00,,,-99.99,778.000000,,2013-05-01 01:11:00,
2013-04-30 18:21:00,62.0,31.0,-100.00,WNW,283,28.0,47.0,31,0.00,,,-99.99,778.000000,,2013-05-01 01:21:00,
2013-04-30 18:52:00,64.0,36.0,-100.00,WNW,298,20.0,49.0,35,0.00,,,0.00,680.000000,,2013-05-01 01:52:00,
2013-04-30 19:02:00,64.0,36.0,-100.00,WNW,298,20.0,49.0,35,0.00,,,0.00,680.000000,,2013-05-01 02:02:00,
2013-04-30 19:11:00,64.0,36.0,-100.00,WNW,298,20.0,49.0,35,0.00,,,0.00,680.000000,,2013-05-01 02:11:00,
2013-04-30 19:21:00,64.0,36.0,-100.00,WNW,298,20.0,49.0,35,0.00,,,0.00,680.000000,,2013-05-01 02:21:00,
2013-04-30 19:52:00,63.0,40.0,-100.00,WNW,295,22.0,37.0,42,0.00,,,-99.99,382.000000,,2013-05-01 02:52:00,
2013-04-30 20:01:00,63.0,40.0,-100.00,WNW,295,22.0,37.0,42,0.00,,,-99.99,382.000000,,2013-05-01 03:01:00,
2013-04-30 20:11:00,63.0,40.0,-100.00,WNW,295,22.0,37.0,42,0.00,,,-99.99,382.000000,,2013-05-01 03:11:00,
2013-04-30 20:21:00,63.0,40.0,-100.00,WNW,295,22.0,37.0,42,0.00,,,-99.99,382.000000,,2013-05-01 03:21:00,
2013-04-30 20:53:00,57.0,40.0,-100.00,NW,322,32.0,42.0,53,-99.99,,,-99.99,47.000000,,2013-05-01 03:53:00,
2013-04-30 21:03:00,57.0,40.0,-100.00,NW,322,32.0,42.0,53,-99.99,,,-99.99,47.000000,,2013-05-01 04:03:00,
2013-04-30 21:12:00,57.0,40.0,-100.00,NW,322,32.0,42.0,53,-99.99,,,-99.99,47.000000,,2013-05-01 04:12:00,
2013-04-30 21:22:00,57.0,40.0,-100.00,NW,322,32.0,42.0,53,-99.99,,,-99.99,47.000000,,2013-05-01 04:22:00,
2013-04-30 21:52:00,56.0,42.0,-100.00,NW,325,31.0,42.0,59,0.00,,,-99.99,2.000000,,2013-05-01 04:52:00,
2013-04-30 22:02:00,56.0,42.0,-100.00,NW,325,31.0,42.0,59,0.00,,,-99.99,2.000000,,2013-05-01 05:02:00,
2013-04-30 22:11:00,56.0,42.0,-100.00,NW,325,31.0,42.0,59,0.00,,,-99.99,2.000000,,2013-05-01 05:11:00,
2013-04-30 22:21:00,56.0,42.0,-100.00,NW,325,31.0,42.0,59,0.00,,,-99.99,2.000000,,2013-05-01 05:21:00,
2013-04-30 22:52:00,53.0,39.0,-100.00,NNW,328,31.0,40.0,60,0.00,,,-99.99,0.000000,,2013-05-01 05:52:00,
2013-04-30 23:02:00,53.0,39.0,-100.00,NNW,328,31.0,40.0,60,0.00,,,-99.99,0.000000,,2013-05-01 06:02:00,
2013-04-30 23:11:00,53.0,39.0,-100.00,NNW,328,31.0,40.0,60,0.00,,,-99.99,0.000000,,2013-05-01 06:11:00,
2013-04-30 23:22:00,53.0,39.0,-100.00,NNW,328,31.0,40.0,60,0.00,,,-99.99,0.000000,,2013-05-01 06:22:00,
2013-04-30 23:52:00,52.0,38.0,-100.00,NW,325,27.0,38.0,58,0.00,,,0.00,0.000000,,2013-05-01 06:52:00,